createdAt,value
2023-06-03T00:00:28.193Z,8.16
2023-06-03T00:01:00.860Z,8.16
2023-06-03T00:01:33.539Z,8.19
2023-06-03T00:02:06.227Z,8.19
2023-06-03T00:02:38.936Z,8.19
2023-06-03T00:03:11.755Z,8.18
2023-06-03T00:03:44.685Z,8.15
2023-06-03T00:04:17.572Z,8.12
2023-06-03T00:04:50.345Z,8.12
2023-06-03T00:05:23.090Z,8.11
2023-06-03T00:05:55.723Z,8.10
2023-06-03T00:06:28.415Z,8.07
2023-06-03T00:07:01.088Z,8.10
2023-06-03T00:07:33.752Z,8.10
2023-06-03T00:08:06.420Z,8.07
2023-06-03T00:08:39.090Z,8.05
2023-06-03T00:09:11.754Z,8.04
2023-06-03T00:09:44.415Z,8.02
2023-06-03T00:10:17.124Z,8.00
2023-06-03T00:10:49.788Z,7.98
2023-06-03T00:11:22.446Z,8.00
2023-06-03T00:11:55.115Z,8.00
2023-06-03T00:12:27.792Z,8.01
2023-06-03T00:13:00.455Z,8.02
2023-06-03T00:13:33.119Z,8.00
2023-06-03T00:14:05.793Z,8.01
2023-06-03T00:14:38.558Z,8.02
2023-06-03T00:15:11.212Z,8.04
2023-06-03T00:15:43.876Z,8.02
2023-06-03T00:16:16.556Z,8.04
2023-06-03T00:16:49.278Z,8.02
2023-06-03T00:17:21.976Z,8.02
2023-06-03T00:17:54.744Z,8.00
2023-06-03T00:18:27.458Z,7.98
2023-06-03T00:19:00.144Z,7.97
2023-06-03T00:19:32.810Z,7.92
2023-06-03T00:20:05.466Z,7.89
2023-06-03T00:20:38.143Z,7.87
2023-06-03T00:21:10.843Z,7.87
2023-06-03T00:21:43.505Z,7.85
2023-06-03T00:22:16.181Z,7.82
2023-06-03T00:22:48.860Z,7.82
2023-06-03T00:23:21.532Z,7.83
2023-06-03T00:23:54.370Z,7.83
2023-06-03T00:24:27.070Z,7.86
2023-06-03T00:24:59.747Z,7.83
2023-06-03T00:25:32.416Z,7.86
2023-06-03T00:26:05.095Z,7.87
2023-06-03T00:26:37.782Z,7.89
2023-06-03T00:27:10.453Z,7.87
2023-06-03T00:27:43.123Z,7.86
2023-06-03T00:28:15.787Z,7.86
2023-06-03T00:28:48.452Z,7.87
2023-06-03T00:29:21.133Z,7.89
2023-06-03T00:29:53.808Z,7.90
2023-06-03T00:30:26.467Z,7.90
2023-06-03T00:30:59.135Z,7.93
2023-06-03T00:31:31.860Z,7.93
2023-06-03T00:32:04.594Z,7.93
2023-06-03T00:32:37.316Z,7.93
2023-06-03T00:33:10.078Z,7.95
2023-06-03T00:33:42.887Z,7.95
2023-06-03T00:34:15.653Z,7.95
2023-06-03T00:34:48.322Z,7.97
2023-06-03T00:35:21.006Z,7.95
2023-06-03T00:35:53.669Z,7.97
2023-06-03T00:36:26.353Z,7.97
2023-06-03T00:36:59.025Z,7.97
2023-06-03T00:37:31.687Z,7.95
2023-06-03T00:38:04.379Z,7.97
2023-06-03T00:38:35.455Z,7.98
2023-06-03T00:39:08.135Z,7.97
2023-06-03T00:39:40.841Z,7.98
2023-06-03T00:40:13.519Z,7.98
2023-06-03T00:40:46.197Z,7.97
2023-06-03T00:41:18.875Z,7.98
2023-06-03T00:41:51.606Z,7.98
2023-06-03T00:42:24.259Z,7.97
2023-06-03T00:42:56.911Z,7.98
2023-06-03T00:43:29.587Z,8.00
2023-06-03T00:44:02.265Z,7.97
2023-06-03T00:44:34.927Z,7.93
2023-06-03T00:45:07.601Z,7.93
2023-06-03T00:45:40.306Z,7.92
2023-06-03T00:46:13.001Z,7.92
2023-06-03T00:46:45.692Z,7.93
2023-06-03T00:47:18.352Z,7.92
2023-06-03T00:47:51.053Z,7.90
2023-06-03T00:48:23.718Z,7.92
2023-06-03T00:48:56.410Z,7.90
2023-06-03T00:49:29.053Z,7.90
2023-06-03T00:50:01.718Z,7.89
2023-06-03T00:50:34.390Z,7.89
2023-06-03T00:51:07.204Z,7.89
2023-06-03T00:51:39.935Z,7.89
2023-06-03T00:52:12.599Z,7.89
2023-06-03T00:52:45.274Z,7.86
2023-06-03T00:53:17.966Z,7.87
2023-06-03T00:53:50.643Z,7.86
2023-06-03T00:54:23.299Z,7.82
2023-06-03T00:54:55.959Z,7.85
2023-06-03T00:55:28.627Z,7.85
2023-06-03T00:56:01.316Z,7.83
2023-06-03T00:56:33.986Z,7.83
2023-06-03T00:57:06.662Z,7.82
2023-06-03T00:57:39.314Z,7.79
2023-06-03T00:58:12.002Z,7.79
2023-06-03T00:58:44.644Z,7.77
2023-06-03T00:59:17.312Z,7.75
2023-06-03T00:59:49.977Z,7.74
2023-06-03T01:00:22.646Z,7.72
2023-06-03T01:00:55.369Z,7.72
2023-06-03T01:01:28.036Z,7.71
2023-06-03T01:02:00.722Z,7.68
2023-06-03T01:02:33.395Z,7.68
2023-06-03T01:03:06.147Z,7.69
2023-06-03T01:03:38.873Z,7.69
2023-06-03T01:04:11.527Z,7.67
2023-06-03T01:04:44.193Z,7.60
2023-06-03T01:05:16.864Z,7.60
2023-06-03T01:05:49.547Z,7.53
2023-06-03T01:06:22.206Z,7.52
2023-06-03T01:06:54.891Z,7.50
2023-06-03T01:07:27.560Z,7.52
2023-06-03T01:08:00.223Z,7.50
2023-06-03T01:08:32.917Z,7.50
2023-06-03T01:09:05.572Z,7.50
2023-06-03T01:09:38.267Z,7.46
2023-06-03T01:10:10.964Z,7.45
2023-06-03T01:10:43.602Z,7.42
2023-06-03T01:11:16.270Z,7.39
2023-06-03T01:11:48.960Z,7.37
2023-06-03T01:12:21.638Z,7.35
2023-06-03T01:12:54.318Z,7.32
2023-06-03T01:13:26.989Z,7.32
2023-06-03T01:13:59.655Z,7.31
2023-06-03T01:14:32.320Z,7.34
2023-06-03T01:15:04.975Z,7.31
2023-06-03T01:15:37.680Z,7.32
2023-06-03T01:16:10.407Z,7.31
2023-06-03T01:16:43.095Z,7.31
2023-06-03T01:17:15.782Z,7.30
2023-06-03T01:17:48.488Z,7.31
2023-06-03T01:18:21.184Z,7.32
2023-06-03T01:18:53.885Z,7.32
2023-06-03T01:19:26.540Z,7.32
2023-06-03T01:19:59.213Z,7.32
2023-06-03T01:20:31.881Z,7.34
2023-06-03T01:21:04.923Z,7.34
2023-06-03T01:21:31.319Z,7.34
2023-06-03T01:22:04.009Z,7.34
2023-06-03T01:22:36.675Z,7.34
2023-06-03T01:23:09.357Z,7.34
2023-06-03T01:23:42.054Z,7.35
2023-06-03T01:24:14.702Z,7.34
2023-06-03T01:24:47.385Z,7.35
2023-06-03T01:25:18.457Z,7.35
2023-06-03T01:25:51.113Z,7.34
2023-06-03T01:26:23.775Z,7.34
2023-06-03T01:26:56.456Z,7.32
2023-06-03T01:27:29.121Z,7.32
2023-06-03T01:28:01.796Z,7.32
2023-06-03T01:28:34.467Z,7.34
2023-06-03T01:29:07.136Z,7.32
2023-06-03T01:29:39.799Z,7.30
2023-06-03T01:30:12.476Z,7.31
2023-06-03T01:30:45.152Z,7.28
2023-06-03T01:31:17.871Z,7.30
2023-06-03T01:31:50.577Z,7.28
2023-06-03T01:32:23.259Z,7.25
2023-06-03T01:32:55.935Z,7.27
2023-06-03T01:33:28.591Z,7.27
2023-06-03T01:34:01.265Z,7.24
2023-06-03T01:34:33.928Z,7.23
2023-06-03T01:35:06.608Z,7.23
2023-06-03T01:35:39.296Z,7.21
2023-06-03T01:36:11.974Z,7.21
2023-06-03T01:36:44.860Z,7.23
2023-06-03T01:37:17.542Z,7.20
2023-06-03T01:37:51.653Z,7.21
2023-06-03T01:38:17.913Z,7.21
2023-06-03T01:38:50.575Z,7.20
2023-06-03T01:39:23.235Z,7.20
2023-06-03T01:39:55.926Z,7.20
2023-06-03T01:40:28.578Z,7.20
2023-06-03T01:41:01.255Z,7.16
2023-06-03T01:41:33.919Z,7.16
2023-06-03T01:42:06.590Z,7.16
2023-06-03T01:42:39.262Z,7.13
2023-06-03T01:43:11.927Z,7.12
2023-06-03T01:43:44.592Z,7.12
2023-06-03T01:44:17.271Z,7.09
2023-06-03T01:44:49.945Z,7.09
2023-06-03T01:45:22.604Z,7.06
2023-06-03T01:45:55.279Z,7.06
2023-06-03T01:46:28.036Z,7.06
2023-06-03T01:47:00.899Z,7.02
2023-06-03T01:47:33.609Z,6.99
2023-06-03T01:48:06.313Z,6.99
2023-06-03T01:48:38.975Z,6.98
2023-06-03T01:49:11.647Z,6.98
2023-06-03T01:49:44.302Z,6.98
2023-06-03T01:50:16.970Z,6.94
2023-06-03T01:50:49.637Z,6.94
2023-06-03T01:51:22.332Z,6.94
2023-06-03T01:51:55.013Z,6.92
2023-06-03T01:52:27.743Z,6.91
2023-06-03T01:53:00.388Z,6.89
2023-06-03T01:53:33.038Z,6.89
2023-06-03T01:54:05.728Z,6.89
2023-06-03T01:54:38.398Z,6.89
2023-06-03T01:55:11.063Z,6.88
2023-06-03T01:55:43.723Z,6.87
2023-06-03T01:56:16.413Z,6.87
2023-06-03T01:56:49.083Z,6.84
2023-06-03T01:57:21.760Z,6.77
2023-06-03T01:57:54.425Z,6.74
2023-06-03T01:58:27.120Z,6.73
2023-06-03T01:58:59.764Z,6.71
2023-06-03T01:59:32.434Z,6.71
2023-06-03T02:00:05.117Z,6.70
2023-06-03T02:00:37.820Z,6.67
2023-06-03T02:01:10.514Z,6.69
2023-06-03T02:01:43.213Z,6.67
2023-06-03T02:02:15.947Z,6.67
2023-06-03T02:02:48.689Z,6.66
2023-06-03T02:03:21.394Z,6.67
2023-06-03T02:03:54.081Z,6.66
2023-06-03T02:04:26.756Z,6.64
2023-06-03T02:04:59.419Z,6.66
2023-06-03T02:05:32.093Z,6.64
2023-06-03T02:06:04.767Z,6.64
2023-06-03T02:06:37.467Z,6.64
2023-06-03T02:07:10.124Z,6.64
2023-06-03T02:07:42.806Z,6.66
2023-06-03T02:08:15.502Z,6.62
2023-06-03T02:08:48.137Z,6.64
2023-06-03T02:09:20.807Z,6.64
2023-06-03T02:09:53.494Z,6.62
2023-06-03T02:10:26.170Z,6.62
2023-06-03T02:10:57.249Z,6.62
2023-06-03T02:11:29.917Z,6.61
2023-06-03T02:12:02.578Z,6.61
2023-06-03T02:12:35.251Z,6.61
2023-06-03T02:13:07.935Z,6.59
2023-06-03T02:13:40.589Z,6.61
2023-06-03T02:14:13.279Z,6.58
2023-06-03T02:14:45.957Z,6.56
2023-06-03T02:15:18.611Z,6.55
2023-06-03T02:15:51.269Z,6.54
2023-06-03T02:16:23.995Z,6.54
2023-06-03T02:16:56.816Z,6.54
2023-06-03T02:17:29.685Z,6.52
2023-06-03T02:18:02.541Z,6.51
2023-06-03T02:18:35.199Z,6.49
2023-06-03T02:19:07.860Z,6.49
2023-06-03T02:19:40.538Z,6.49
2023-06-03T02:20:13.211Z,6.49
2023-06-03T02:20:45.886Z,6.48
2023-06-03T02:21:18.563Z,6.48
2023-06-03T02:21:51.246Z,6.49
2023-06-03T02:22:23.893Z,6.48
2023-06-03T02:22:56.568Z,6.48
2023-06-03T02:23:29.272Z,6.48
2023-06-03T02:24:02.021Z,6.44
2023-06-03T02:24:34.774Z,6.43
2023-06-03T02:25:07.623Z,6.44
2023-06-03T02:25:40.324Z,6.43
2023-06-03T02:26:12.993Z,6.43
2023-06-03T02:26:45.685Z,6.40
2023-06-03T02:27:18.367Z,6.40
2023-06-03T02:27:51.037Z,6.40
2023-06-03T02:28:23.716Z,6.41
2023-06-03T02:28:56.377Z,6.38
2023-06-03T02:29:29.058Z,6.38
2023-06-03T02:30:01.788Z,6.37
2023-06-03T02:30:34.500Z,6.37
2023-06-03T02:31:07.361Z,6.37
2023-06-03T02:31:40.169Z,6.38
2023-06-03T02:32:06.851Z,6.38
2023-06-03T02:32:39.585Z,6.37
2023-06-03T02:33:12.275Z,6.37
2023-06-03T02:33:45.044Z,6.38
2023-06-03T02:34:17.707Z,6.36
2023-06-03T02:34:50.407Z,6.34
2023-06-03T02:35:23.059Z,6.36
2023-06-03T02:35:55.827Z,6.34
2023-06-03T02:36:28.503Z,6.33
2023-06-03T02:37:01.187Z,6.33
2023-06-03T02:37:33.830Z,6.33
2023-06-03T02:38:06.507Z,6.31
2023-06-03T02:38:39.169Z,6.31
2023-06-03T02:39:11.841Z,6.31
2023-06-03T02:39:44.504Z,6.30
2023-06-03T02:40:17.190Z,6.30
2023-06-03T02:40:49.845Z,6.30
2023-06-03T02:41:22.509Z,6.28
2023-06-03T02:41:55.183Z,6.27
2023-06-03T02:42:27.842Z,6.27
2023-06-03T02:43:00.526Z,6.28
2023-06-03T02:43:33.174Z,6.25
2023-06-03T02:44:05.836Z,6.25
2023-06-03T02:44:38.497Z,6.27
2023-06-03T02:45:11.183Z,6.25
2023-06-03T02:45:43.876Z,6.22
2023-06-03T02:46:16.601Z,6.22
2023-06-03T02:46:49.295Z,6.22
2023-06-03T02:47:21.990Z,6.21
2023-06-03T02:47:54.737Z,6.22
2023-06-03T02:48:27.388Z,6.21
2023-06-03T02:49:00.091Z,6.19
2023-06-03T02:49:32.765Z,6.19
2023-06-03T02:50:05.427Z,6.19
2023-06-03T02:50:38.092Z,6.19
2023-06-03T02:51:10.758Z,6.17
2023-06-03T02:51:43.445Z,6.17
2023-06-03T02:52:16.121Z,6.17
2023-06-03T02:52:48.797Z,6.17
2023-06-03T02:53:21.458Z,6.15
2023-06-03T02:53:54.140Z,6.14
2023-06-03T02:54:26.808Z,6.15
2023-06-03T02:54:59.476Z,6.14
2023-06-03T02:55:32.128Z,6.12
2023-06-03T02:56:04.795Z,6.12
2023-06-03T02:56:37.485Z,6.12
2023-06-03T02:57:10.278Z,6.09
2023-06-03T02:57:42.946Z,6.09
2023-06-03T02:58:15.590Z,6.09
2023-06-03T02:58:48.257Z,6.09
2023-06-03T02:59:20.922Z,6.09
2023-06-03T02:59:53.601Z,6.09
2023-06-03T03:00:26.270Z,6.08
2023-06-03T03:00:58.965Z,6.08
2023-06-03T03:01:31.684Z,6.09
2023-06-03T03:02:04.457Z,6.06
2023-06-03T03:02:37.230Z,6.08
2023-06-03T03:03:09.956Z,6.08
2023-06-03T03:03:42.696Z,6.11
2023-06-03T03:04:15.465Z,6.08
2023-06-03T03:04:48.181Z,6.11
2023-06-03T03:05:20.850Z,6.09
2023-06-03T03:05:53.523Z,6.08
2023-06-03T03:06:26.242Z,6.09
2023-06-03T03:06:58.899Z,6.06
2023-06-03T03:07:31.584Z,6.04
2023-06-03T03:08:04.257Z,6.04
2023-06-03T03:08:36.950Z,6.06
2023-06-03T03:09:09.681Z,6.06
2023-06-03T03:09:42.335Z,6.06
2023-06-03T03:10:14.998Z,6.08
2023-06-03T03:10:47.671Z,6.09
2023-06-03T03:11:20.340Z,6.08
2023-06-03T03:11:53.040Z,6.08
2023-06-03T03:12:25.726Z,6.11
2023-06-03T03:12:58.400Z,6.11
2023-06-03T03:13:31.085Z,6.09
2023-06-03T03:14:03.876Z,6.11
2023-06-03T03:14:36.527Z,6.12
2023-06-03T03:15:09.206Z,6.12
2023-06-03T03:15:41.865Z,6.11
2023-06-03T03:16:14.556Z,6.14
2023-06-03T03:16:47.209Z,6.14
2023-06-03T03:17:19.882Z,6.12
2023-06-03T03:17:52.599Z,6.15
2023-06-03T03:18:25.280Z,6.18
2023-06-03T03:18:57.948Z,6.18
2023-06-03T03:19:30.644Z,6.18
2023-06-03T03:20:03.295Z,6.18
2023-06-03T03:20:35.950Z,6.18
2023-06-03T03:21:08.619Z,6.18
2023-06-03T03:21:41.292Z,6.19
2023-06-03T03:22:13.972Z,6.19
2023-06-03T03:22:46.655Z,6.21
2023-06-03T03:23:19.362Z,6.21
2023-06-03T03:23:52.077Z,6.25
2023-06-03T03:24:24.719Z,6.25
2023-06-03T03:24:57.410Z,6.25
2023-06-03T03:25:30.121Z,6.27
2023-06-03T03:26:02.852Z,6.25
2023-06-03T03:26:35.613Z,6.27
2023-06-03T03:27:08.309Z,6.27
2023-06-03T03:27:40.982Z,6.30
2023-06-03T03:28:13.630Z,6.28
2023-06-03T03:28:46.296Z,6.30
2023-06-03T03:29:18.965Z,6.31
2023-06-03T03:29:51.659Z,6.30
2023-06-03T03:30:24.301Z,6.30
2023-06-03T03:30:56.970Z,6.31
2023-06-03T03:31:29.679Z,6.30
2023-06-03T03:32:00.762Z,6.31
2023-06-03T03:32:33.558Z,6.31
2023-06-03T03:33:06.272Z,6.31
2023-06-03T03:33:38.932Z,6.31
2023-06-03T03:34:11.600Z,6.31
2023-06-03T03:34:44.276Z,6.33
2023-06-03T03:35:16.940Z,6.33
2023-06-03T03:35:49.615Z,6.33
2023-06-03T03:36:22.298Z,6.34
2023-06-03T03:36:54.978Z,6.37
2023-06-03T03:37:27.653Z,6.34
2023-06-03T03:38:00.302Z,6.36
2023-06-03T03:38:32.962Z,6.37
2023-06-03T03:39:05.636Z,6.37
2023-06-03T03:39:38.297Z,6.40
2023-06-03T03:40:10.968Z,6.38
2023-06-03T03:40:43.675Z,6.38
2023-06-03T03:41:16.352Z,6.41
2023-06-03T03:41:49.034Z,6.37
2023-06-03T03:42:21.690Z,6.38
2023-06-03T03:42:54.361Z,6.40
2023-06-03T03:43:27.024Z,6.40
2023-06-03T03:43:59.700Z,6.41
2023-06-03T03:44:32.388Z,6.41
2023-06-03T03:45:05.044Z,6.41
2023-06-03T03:45:37.723Z,6.41
2023-06-03T03:46:10.427Z,6.40
2023-06-03T03:46:43.233Z,6.40
2023-06-03T03:47:15.888Z,6.38
2023-06-03T03:47:48.594Z,6.36
2023-06-03T03:48:21.245Z,6.36
2023-06-03T03:48:53.899Z,6.33
2023-06-03T03:49:26.576Z,6.33
2023-06-03T03:49:53.216Z,6.33
2023-06-03T03:50:19.890Z,6.30
2023-06-03T03:50:46.379Z,6.31
2023-06-03T03:51:19.382Z,6.30
2023-06-03T03:51:52.253Z,6.28
2023-06-03T03:52:25.682Z,6.28
2023-06-03T03:52:55.199Z,6.28
2023-06-03T03:53:28.113Z,6.30
2023-06-03T03:53:54.751Z,6.31
2023-06-03T03:54:21.411Z,6.31
2023-06-03T03:54:54.234Z,6.31
2023-06-03T03:55:20.879Z,6.34
2023-06-03T03:55:53.545Z,6.34
2023-06-03T03:56:26.551Z,6.37
2023-06-03T03:56:53.075Z,6.37
2023-06-03T03:57:25.774Z,6.40
2023-06-03T03:57:58.436Z,6.41
2023-06-03T03:58:31.104Z,6.43
2023-06-03T03:59:03.770Z,6.44
2023-06-03T03:59:36.437Z,6.46
2023-06-03T04:00:09.116Z,6.49
2023-06-03T04:00:41.785Z,6.49
2023-06-03T04:01:14.465Z,6.51
2023-06-03T04:01:47.189Z,6.54
2023-06-03T04:02:19.901Z,6.54
2023-06-03T04:02:52.626Z,6.56
2023-06-03T04:03:23.711Z,6.55
2023-06-03T04:03:56.668Z,6.58
2023-06-03T04:04:29.414Z,6.62
2023-06-03T04:05:02.087Z,6.62
2023-06-03T04:05:34.756Z,6.66
2023-06-03T04:06:07.459Z,6.69
2023-06-03T04:06:40.119Z,6.69
2023-06-03T04:07:12.808Z,6.71
2023-06-03T04:07:45.471Z,6.73
2023-06-03T04:08:18.140Z,6.76
2023-06-03T04:08:50.816Z,6.80
2023-06-03T04:09:23.479Z,6.81
2023-06-03T04:09:56.152Z,6.85
2023-06-03T04:10:28.920Z,6.87
2023-06-03T04:11:01.601Z,6.89
2023-06-03T04:11:34.275Z,6.91
2023-06-03T04:12:06.942Z,6.94
2023-06-03T04:12:39.625Z,6.99
2023-06-03T04:13:12.279Z,6.99
2023-06-03T04:13:44.957Z,7.02
2023-06-03T04:14:17.641Z,7.05
2023-06-03T04:14:50.313Z,7.07
2023-06-03T04:15:22.993Z,7.06
2023-06-03T04:15:55.728Z,7.09
2023-06-03T04:16:28.580Z,7.10
2023-06-03T04:17:01.336Z,7.13
2023-06-03T04:17:34.077Z,7.15
2023-06-03T04:18:06.787Z,7.17
2023-06-03T04:18:39.473Z,7.20
2023-06-03T04:19:12.135Z,7.21
2023-06-03T04:19:44.820Z,7.23
2023-06-03T04:20:17.489Z,7.23
2023-06-03T04:20:50.184Z,7.25
2023-06-03T04:21:22.853Z,7.27
2023-06-03T04:21:55.552Z,7.27
2023-06-03T04:22:28.230Z,7.31
2023-06-03T04:23:00.916Z,7.32
2023-06-03T04:23:33.644Z,7.34
2023-06-03T04:24:06.710Z,7.35
2023-06-03T04:24:33.013Z,7.39
2023-06-03T04:25:05.709Z,7.40
2023-06-03T04:25:38.367Z,7.42
2023-06-03T04:26:11.048Z,7.45
2023-06-03T04:26:43.722Z,7.46
2023-06-03T04:27:16.385Z,7.48
2023-06-03T04:27:49.059Z,7.49
2023-06-03T04:28:21.724Z,7.50
2023-06-03T04:28:54.400Z,7.52
2023-06-03T04:29:27.072Z,7.55
2023-06-03T04:29:59.760Z,7.57
2023-06-03T04:30:32.431Z,7.60
2023-06-03T04:31:05.280Z,7.63
2023-06-03T04:31:38.140Z,7.63
2023-06-03T04:32:10.915Z,7.68
2023-06-03T04:32:43.713Z,7.68
2023-06-03T04:33:16.425Z,7.71
2023-06-03T04:33:49.079Z,7.71
2023-06-03T04:34:21.747Z,7.74
2023-06-03T04:34:54.421Z,7.77
2023-06-03T04:35:27.086Z,7.79
2023-06-03T04:35:59.743Z,7.80
2023-06-03T04:36:32.424Z,7.82
2023-06-03T04:37:05.092Z,7.83
2023-06-03T04:37:37.770Z,7.86
2023-06-03T04:38:10.440Z,7.86
2023-06-03T04:38:43.113Z,7.87
2023-06-03T04:39:15.774Z,7.89
2023-06-03T04:39:48.444Z,7.92
2023-06-03T04:40:21.132Z,7.97
2023-06-03T04:40:53.786Z,7.98
2023-06-03T04:41:26.470Z,8.02
2023-06-03T04:41:59.133Z,8.04
2023-06-03T04:42:31.940Z,8.07
2023-06-03T04:43:04.771Z,8.08
2023-06-03T04:43:37.514Z,8.10
2023-06-03T04:44:10.197Z,8.15
2023-06-03T04:44:42.854Z,8.19
2023-06-03T04:45:15.528Z,8.18
2023-06-03T04:45:48.195Z,8.23
2023-06-03T04:46:20.874Z,8.25
2023-06-03T04:46:53.732Z,8.28
2023-06-03T04:47:26.389Z,8.28
2023-06-03T04:47:59.060Z,8.30
2023-06-03T04:48:31.713Z,8.30
2023-06-03T04:49:04.418Z,8.36
2023-06-03T04:49:37.116Z,8.34
2023-06-03T04:50:09.798Z,8.36
2023-06-03T04:50:42.464Z,8.36
2023-06-03T04:51:15.145Z,8.40
2023-06-03T04:51:47.828Z,8.38
2023-06-03T04:52:20.472Z,8.41
2023-06-03T04:52:53.176Z,8.43
2023-06-03T04:53:25.852Z,8.44
2023-06-03T04:53:58.518Z,8.44
2023-06-03T04:54:31.179Z,8.47
2023-06-03T04:55:03.860Z,8.50
2023-06-03T04:55:36.527Z,8.48
2023-06-03T04:56:09.196Z,8.53
2023-06-03T04:56:41.854Z,8.56
2023-06-03T04:57:14.520Z,8.59
2023-06-03T04:57:47.248Z,8.61
2023-06-03T04:58:20.029Z,8.61
2023-06-03T04:58:52.693Z,8.61
2023-06-03T04:59:25.394Z,8.65
2023-06-03T04:59:58.048Z,8.65
2023-06-03T05:00:30.712Z,8.66
2023-06-03T05:01:03.550Z,8.68
2023-06-03T05:01:36.360Z,8.68
2023-06-03T05:02:09.114Z,8.68
2023-06-03T05:02:42.025Z,8.70
2023-06-03T05:03:17.030Z,8.71
2023-06-03T05:03:44.029Z,8.73
2023-06-03T05:04:16.729Z,8.73
2023-06-03T05:04:49.392Z,8.76
2023-06-03T05:05:22.085Z,8.79
2023-06-03T05:05:54.751Z,8.80
2023-06-03T05:06:27.422Z,8.83
2023-06-03T05:07:00.211Z,8.86
2023-06-03T05:07:32.973Z,8.87
2023-06-03T05:08:05.694Z,8.91
2023-06-03T05:08:38.376Z,8.92
2023-06-03T05:09:11.392Z,8.95
2023-06-03T05:09:37.566Z,8.95
2023-06-03T05:10:10.232Z,8.94
2023-06-03T05:10:42.905Z,8.99
2023-06-03T05:11:15.570Z,8.99
2023-06-03T05:11:48.240Z,8.99
2023-06-03T05:12:20.921Z,9.02
2023-06-03T05:12:53.607Z,9.02
2023-06-03T05:13:26.268Z,9.04
2023-06-03T05:13:58.947Z,9.08
2023-06-03T05:14:31.608Z,9.10
2023-06-03T05:15:04.286Z,9.10
2023-06-03T05:15:36.968Z,9.11
2023-06-03T05:16:09.657Z,9.13
2023-06-03T05:16:42.401Z,9.15
2023-06-03T05:17:15.071Z,9.17
2023-06-03T05:17:47.815Z,9.15
2023-06-03T05:18:20.503Z,9.17
2023-06-03T05:18:53.200Z,9.18
2023-06-03T05:19:25.863Z,9.20
2023-06-03T05:19:58.527Z,9.20
2023-06-03T05:20:31.179Z,9.21
2023-06-03T05:21:03.990Z,9.21
2023-06-03T05:21:36.835Z,9.24
2023-06-03T05:22:09.506Z,9.23
2023-06-03T05:22:42.178Z,9.24
2023-06-03T05:23:14.909Z,9.26
2023-06-03T05:23:47.673Z,9.29
2023-06-03T05:24:20.338Z,9.29
2023-06-03T05:24:53.001Z,9.29
2023-06-03T05:25:25.676Z,9.31
2023-06-03T05:25:58.468Z,9.32
2023-06-03T05:26:31.113Z,9.33
2023-06-03T05:27:03.786Z,9.32
2023-06-03T05:27:36.489Z,9.33
2023-06-03T05:28:09.165Z,9.35
2023-06-03T05:28:41.846Z,9.35
2023-06-03T05:29:14.527Z,9.38
2023-06-03T05:29:47.192Z,9.39
2023-06-03T05:30:19.887Z,9.39
2023-06-03T05:30:52.585Z,9.39
2023-06-03T05:31:25.247Z,9.40
2023-06-03T05:31:58.032Z,9.42
2023-06-03T05:32:30.741Z,9.42
2023-06-03T05:33:03.449Z,9.43
2023-06-03T05:33:36.156Z,9.47
2023-06-03T05:34:08.831Z,9.47
2023-06-03T05:34:41.506Z,9.51
2023-06-03T05:35:14.172Z,9.51
2023-06-03T05:35:46.849Z,9.51
2023-06-03T05:36:19.537Z,9.54
2023-06-03T05:36:52.200Z,9.56
2023-06-03T05:37:24.854Z,9.56
2023-06-03T05:37:57.544Z,9.57
2023-06-03T05:38:30.222Z,9.58
2023-06-03T05:39:02.884Z,9.61
2023-06-03T05:39:35.556Z,9.64
2023-06-03T05:40:08.245Z,9.65
2023-06-03T05:40:40.889Z,9.66
2023-06-03T05:41:13.565Z,9.68
2023-06-03T05:41:46.230Z,9.68
2023-06-03T05:42:18.910Z,9.68
2023-06-03T05:42:51.609Z,9.68
2023-06-03T05:43:24.258Z,9.69
2023-06-03T05:43:56.973Z,9.71
2023-06-03T05:44:29.655Z,9.71
2023-06-03T05:45:02.317Z,9.71
2023-06-03T05:45:34.988Z,9.74
2023-06-03T05:46:01.502Z,9.72
2023-06-03T05:46:34.352Z,9.75
2023-06-03T05:47:07.144Z,9.78
2023-06-03T05:47:39.842Z,9.78
2023-06-03T05:48:12.525Z,9.78
2023-06-03T05:48:45.196Z,9.81
2023-06-03T05:49:17.866Z,9.81
2023-06-03T05:49:50.566Z,9.83
2023-06-03T05:50:23.233Z,9.84
2023-06-03T05:50:56.134Z,9.86
2023-06-03T05:51:28.835Z,9.87
2023-06-03T05:52:01.485Z,9.90
2023-06-03T05:52:34.152Z,9.91
2023-06-03T05:53:06.862Z,9.93
2023-06-03T05:53:39.570Z,9.96
2023-06-03T05:54:10.618Z,9.97
2023-06-03T05:54:43.272Z,10.01
2023-06-03T05:55:15.955Z,10.04
2023-06-03T05:55:48.611Z,10.05
2023-06-03T05:56:21.292Z,10.07
2023-06-03T05:56:53.955Z,10.09
2023-06-03T05:57:26.619Z,10.12
2023-06-03T05:57:59.300Z,10.14
2023-06-03T05:58:31.987Z,10.17
2023-06-03T05:59:04.666Z,10.18
2023-06-03T05:59:37.328Z,10.18
2023-06-03T06:00:09.987Z,10.22
2023-06-03T06:00:42.656Z,10.23
2023-06-03T06:01:15.326Z,10.26
2023-06-03T06:01:47.993Z,10.27
2023-06-03T06:02:20.720Z,10.29
2023-06-03T06:02:53.560Z,10.30
2023-06-03T06:03:26.399Z,10.32
2023-06-03T06:03:59.752Z,10.33
2023-06-03T06:04:26.032Z,10.38
2023-06-03T06:04:58.678Z,10.40
2023-06-03T06:05:31.352Z,10.44
2023-06-03T06:06:04.011Z,10.51
2023-06-03T06:06:36.689Z,10.51
2023-06-03T06:07:09.337Z,10.53
2023-06-03T06:07:41.995Z,10.56
2023-06-03T06:08:14.704Z,10.59
2023-06-03T06:08:47.358Z,10.60
2023-06-03T06:09:20.024Z,10.64
2023-06-03T06:09:52.694Z,10.66
2023-06-03T06:10:25.356Z,10.67
2023-06-03T06:10:58.038Z,10.71
2023-06-03T06:11:30.723Z,10.71
2023-06-03T06:12:03.425Z,10.74
2023-06-03T06:12:36.083Z,10.78
2023-06-03T06:13:08.761Z,10.79
2023-06-03T06:13:41.454Z,10.82
2023-06-03T06:14:14.121Z,10.85
2023-06-03T06:14:46.785Z,10.86
2023-06-03T06:15:19.489Z,10.86
2023-06-03T06:15:52.256Z,10.89
2023-06-03T06:16:25.023Z,10.92
2023-06-03T06:16:57.726Z,10.92
2023-06-03T06:17:30.437Z,10.94
2023-06-03T06:18:03.145Z,10.97
2023-06-03T06:18:35.841Z,10.99
2023-06-03T06:19:08.523Z,11.02
2023-06-03T06:19:41.194Z,11.04
2023-06-03T06:20:13.850Z,11.07
2023-06-03T06:20:46.516Z,11.09
2023-06-03T06:21:19.184Z,11.11
2023-06-03T06:21:51.879Z,11.18
2023-06-03T06:22:24.551Z,11.22
2023-06-03T06:22:55.675Z,11.27
2023-06-03T06:23:28.416Z,11.29
2023-06-03T06:24:01.169Z,11.35
2023-06-03T06:24:36.355Z,11.37
2023-06-03T06:25:02.872Z,11.40
2023-06-03T06:25:35.555Z,11.46
2023-06-03T06:26:08.216Z,11.49
2023-06-03T06:26:40.864Z,11.52
2023-06-03T06:27:13.536Z,11.57
2023-06-03T06:27:46.306Z,11.60
2023-06-03T06:28:18.996Z,11.61
2023-06-03T06:28:51.673Z,11.64
2023-06-03T06:29:24.344Z,11.65
2023-06-03T06:29:57.026Z,11.67
2023-06-03T06:30:29.700Z,11.70
2023-06-03T06:31:03.290Z,11.70
2023-06-03T06:31:30.638Z,11.72
2023-06-03T06:32:03.358Z,11.76
2023-06-03T06:32:36.064Z,11.76
2023-06-03T06:33:08.740Z,11.78
2023-06-03T06:33:41.521Z,11.82
2023-06-03T06:34:14.173Z,11.83
2023-06-03T06:34:46.839Z,11.86
2023-06-03T06:35:19.511Z,11.88
2023-06-03T06:35:50.597Z,11.91
2023-06-03T06:36:23.265Z,11.91
2023-06-03T06:36:55.947Z,11.95
2023-06-03T06:37:28.617Z,11.98
2023-06-03T06:38:01.299Z,12.01
2023-06-03T06:38:33.962Z,12.02
2023-06-03T06:39:06.636Z,12.07
2023-06-03T06:39:39.316Z,12.02
2023-06-03T06:40:11.964Z,12.07
2023-06-03T06:40:44.622Z,12.10
2023-06-03T06:41:17.313Z,12.13
2023-06-03T06:41:50.009Z,12.21
2023-06-03T06:42:22.657Z,12.27
2023-06-03T06:42:55.327Z,12.29
2023-06-03T06:43:28.006Z,12.34
2023-06-03T06:44:00.655Z,12.37
2023-06-03T06:44:33.335Z,12.41
2023-06-03T06:45:06.035Z,12.47
2023-06-03T06:45:38.858Z,12.52
2023-06-03T06:46:11.638Z,12.53
2023-06-03T06:46:44.314Z,12.57
2023-06-03T06:47:16.983Z,12.62
2023-06-03T06:47:49.703Z,12.65
2023-06-03T06:48:22.358Z,12.67
2023-06-03T06:48:55.055Z,12.70
2023-06-03T06:49:27.722Z,12.72
2023-06-03T06:50:00.459Z,12.77
2023-06-03T06:50:33.128Z,12.79
2023-06-03T06:51:06.017Z,12.86
2023-06-03T06:51:32.303Z,12.89
2023-06-03T06:52:04.978Z,12.93
2023-06-03T06:52:39.015Z,12.92
2023-06-03T06:53:05.890Z,12.95
2023-06-03T06:53:38.622Z,13.00
2023-06-03T06:54:11.261Z,13.04
2023-06-03T06:54:43.919Z,13.07
2023-06-03T06:55:16.595Z,13.11
2023-06-03T06:55:49.260Z,13.14
2023-06-03T06:56:21.919Z,13.17
2023-06-03T06:56:54.588Z,13.20
2023-06-03T06:57:27.248Z,13.25
2023-06-03T06:57:59.918Z,13.28
2023-06-03T06:58:32.607Z,13.29
2023-06-03T06:59:05.285Z,13.36
2023-06-03T06:59:37.940Z,13.39
2023-06-03T07:00:10.596Z,13.41
2023-06-03T07:00:43.266Z,13.45
2023-06-03T07:01:16.081Z,13.51
2023-06-03T07:01:48.886Z,13.54
2023-06-03T07:02:21.685Z,13.57
2023-06-03T07:02:54.411Z,13.62
2023-06-03T07:03:27.118Z,13.67
2023-06-03T07:03:59.823Z,13.71
2023-06-03T07:04:32.479Z,13.78
2023-06-03T07:05:05.143Z,13.82
2023-06-03T07:05:37.818Z,13.87
2023-06-03T07:06:10.514Z,13.88
2023-06-03T07:06:43.189Z,13.91
2023-06-03T07:07:15.861Z,13.92
2023-06-03T07:07:48.528Z,13.96
2023-06-03T07:08:21.192Z,14.00
2023-06-03T07:08:53.900Z,14.03
2023-06-03T07:09:26.533Z,14.07
2023-06-03T07:09:59.211Z,14.10
2023-06-03T07:10:31.876Z,14.15